sensor_id;sensor_type;location;lat;lon;timestamp;pressure;altitude;pressure_sealevel;temperature;humidity
39773;BME280;25451;51.960;6.250;2023-03-01T00:01:00;103012.69;;;1.27;55.11
39773;BME280;25451;51.960;6.250;2023-03-01T00:03:26;102999.75;;;1.19;55.34
39773;BME280;25451;51.960;6.250;2023-03-01T00:05:51;103000.84;;;1.17;55.35
39773;BME280;25451;51.960;6.250;2023-03-01T00:08:16;103000.72;;;1.18;55.31
39773;BME280;25451;51.960;6.250;2023-03-01T00:10:41;103007.63;;;1.22;55.15
39773;BME280;25451;51.960;6.250;2023-03-01T00:13:07;103001.72;;;1.17;55.34
39773;BME280;25451;51.960;6.250;2023-03-01T00:15:32;102982.72;;;1.06;55.18
39773;BME280;25451;51.960;6.250;2023-03-01T00:17:59;102996.16;;;1.19;55.34
39773;BME280;25451;51.960;6.250;2023-03-01T00:20:25;102981.75;;;1.07;55.21
39773;BME280;25451;51.960;6.250;2023-03-01T00:22:50;102991.09;;;1.14;55.81
39773;BME280;25451;51.960;6.250;2023-03-01T00:25:16;102991.25;;;1.13;55.06
39773;BME280;25451;51.960;6.250;2023-03-01T00:27:41;102986.81;;;1.12;55.61
39773;BME280;25451;51.960;6.250;2023-03-01T00:30:07;102986.81;;;1.12;55.45
39773;BME280;25451;51.960;6.250;2023-03-01T00:32:32;102979.63;;;1.11;55.51
39773;BME280;25451;51.960;6.250;2023-03-01T00:34:58;102989.38;;;1.13;55.73
39773;BME280;25451;51.960;6.250;2023-03-01T00:37:23;102973.84;;;1.04;55.60
39773;BME280;25451;51.960;6.250;2023-03-01T00:39:49;102982.88;;;1.05;55.29
39773;BME280;25451;51.960;6.250;2023-03-01T00:42:15;102981.25;;;1.02;55.36
39773;BME280;25451;51.960;6.250;2023-03-01T00:44:41;102975.81;;;1.02;55.73
39773;BME280;25451;51.960;6.250;2023-03-01T00:47:06;102983.59;;;1.07;55.35
39773;BME280;25451;51.960;6.250;2023-03-01T00:49:31;102977.06;;;0.98;55.61
39773;BME280;25451;51.960;6.250;2023-03-01T00:51:56;102970.81;;;0.98;55.73
39773;BME280;25451;51.960;6.250;2023-03-01T00:54:22;102939.34;;;0.84;56.07
39773;BME280;25451;51.960;6.250;2023-03-01T00:56:47;102948.22;;;0.86;55.62
39773;BME280;25451;51.960;6.250;2023-03-01T00:59:12;102956.59;;;0.94;55.93
39773;BME280;25451;51.960;6.250;2023-03-01T01:01:38;102952.41;;;0.90;55.88
39773;BME280;25451;51.960;6.250;2023-03-01T01:04:11;102962.03;;;0.94;55.80
39773;BME280;25451;51.960;6.250;2023-03-01T01:06:39;102960.31;;;0.93;56.19
39773;BME280;25451;51.960;6.250;2023-03-01T01:09:08;102959.81;;;0.88;56.10
39773;BME280;25451;51.960;6.250;2023-03-01T01:11:34;102967.88;;;0.90;56.36
39773;BME280;25451;51.960;6.250;2023-03-01T01:14:03;102953.06;;;0.82;56.37
39773;BME280;25451;51.960;6.250;2023-03-01T01:16:29;102951.59;;;0.78;55.84
39773;BME280;25451;51.960;6.250;2023-03-01T01:18:55;102945.56;;;0.75;55.84
39773;BME280;25451;51.960;6.250;2023-03-01T01:21:23;102940.88;;;0.77;56.07
39773;BME280;25451;51.960;6.250;2023-03-01T01:23:48;102927.78;;;0.71;56.05
39773;BME280;25451;51.960;6.250;2023-03-01T01:26:20;102936.69;;;0.73;56.22
39773;BME280;25451;51.960;6.250;2023-03-01T01:28:46;102932.22;;;0.72;55.97
39773;BME280;25451;51.960;6.250;2023-03-01T01:31:12;102938.66;;;0.71;56.20
39773;BME280;25451;51.960;6.250;2023-03-01T01:33:38;102935.59;;;0.64;56.03
39773;BME280;25451;51.960;6.250;2023-03-01T01:36:05;102918.06;;;0.57;56.42
39773;BME280;25451;51.960;6.250;2023-03-01T01:38:30;102921.91;;;0.55;56.42
39773;BME280;25451;51.960;6.250;2023-03-01T01:40:56;102913.28;;;0.50;56.41
39773;BME280;25451;51.960;6.250;2023-03-01T01:43:27;102914.38;;;0.47;56.34
39773;BME280;25451;51.960;6.250;2023-03-01T01:46:03;102920.69;;;0.48;56.62
39773;BME280;25451;51.960;6.250;2023-03-01T01:48:39;102922.69;;;0.46;56.87
39773;BME280;25451;51.960;6.250;2023-03-01T01:51:09;102937.72;;;0.50;57.05
39773;BME280;25451;51.960;6.250;2023-03-01T01:53:37;102912.34;;;0.29;56.78
39773;BME280;25451;51.960;6.250;2023-03-01T01:56:03;102929.34;;;0.42;56.58
39773;BME280;25451;51.960;6.250;2023-03-01T01:58:31;102920.97;;;0.34;56.76
39773;BME280;25451;51.960;6.250;2023-03-01T02:00:57;102934.06;;;0.40;56.81
39773;BME280;25451;51.960;6.250;2023-03-01T02:03:25;102934.06;;;0.40;57.04
39773;BME280;25451;51.960;6.250;2023-03-01T02:06:00;102924.31;;;0.37;56.95
39773;BME280;25451;51.960;6.250;2023-03-01T02:08:29;102921.22;;;0.31;56.86
39773;BME280;25451;51.960;6.250;2023-03-01T02:10:56;102939.88;;;0.35;56.54
39773;BME280;25451;51.960;6.250;2023-03-01T02:13:22;102930.50;;;0.28;56.66
39773;BME280;25451;51.960;6.250;2023-03-01T02:15:48;102909.03;;;0.25;56.92
39773;BME280;25451;51.960;6.250;2023-03-01T02:18:16;102921.34;;;0.29;57.20
39773;BME280;25451;51.960;6.250;2023-03-01T02:23:30;102908.66;;;0.19;57.34
39773;BME280;25451;51.960;6.250;2023-03-01T02:26:01;102910.78;;;0.15;57.04
39773;BME280;25451;51.960;6.250;2023-03-01T02:28:38;102904.38;;;0.16;57.12
39773;BME280;25451;51.960;6.250;2023-03-01T02:31:07;102915.84;;;0.20;57.37
39773;BME280;25451;51.960;6.250;2023-03-01T02:34:00;102912.75;;;0.13;57.07
39773;BME280;25451;51.960;6.250;2023-03-01T02:36:30;102914.38;;;0.16;56.95
39773;BME280;25451;51.960;6.250;2023-03-01T02:38:58;102920.03;;;0.13;56.80
39773;BME280;25451;51.960;6.250;2023-03-01T02:41:26;102902.53;;;0.06;56.90
39773;BME280;25451;51.960;6.250;2023-03-01T02:43:53;102893.16;;;-0.02;57.56
39773;BME280;25451;51.960;6.250;2023-03-01T02:46:22;102909.69;;;0.07;56.85
39773;BME280;25451;51.960;6.250;2023-03-01T02:48:51;102917.81;;;0.07;57.51
39773;BME280;25451;51.960;6.250;2023-03-01T02:51:25;102908.84;;;0.06;57.26
39773;BME280;25451;51.960;6.250;2023-03-01T02:56:26;102897.59;;;-0.01;57.40
39773;BME280;25451;51.960;6.250;2023-03-01T02:58:52;102872.22;;;-0.11;57.35
39773;BME280;25451;51.960;6.250;2023-03-01T03:01:19;102881.19;;;-0.10;57.04
39773;BME280;25451;51.960;6.250;2023-03-01T03:03:45;102884.03;;;-0.12;57.78
39773;BME280;25451;51.960;6.250;2023-03-01T03:06:11;102906.72;;;-0.02;57.27
39773;BME280;25451;51.960;6.250;2023-03-01T03:08:36;102890.34;;;-0.11;57.62
39773;BME280;25451;51.960;6.250;2023-03-01T03:11:02;102891.94;;;-0.09;57.08
39773;BME280;25451;51.960;6.250;2023-03-01T03:13:27;102903.53;;;-0.07;57.46
39773;BME280;25451;51.960;6.250;2023-03-01T03:15:55;102885.16;;;-0.14;57.30
39773;BME280;25451;51.960;6.250;2023-03-01T03:18:21;102889.22;;;-0.09;57.22
39773;BME280;25451;51.960;6.250;2023-03-01T03:20:48;102882.69;;;-0.17;57.38
39773;BME280;25451;51.960;6.250;2023-03-01T03:23:18;102871.59;;;-0.25;57.67
39773;BME280;25451;51.960;6.250;2023-03-01T03:25:44;102890.56;;;-0.14;57.43
39773;BME280;25451;51.960;6.250;2023-03-01T03:28:09;102881.97;;;-0.19;57.69
39773;BME280;25451;51.960;6.250;2023-03-01T03:30:38;102875.06;;;-0.23;57.57
39773;BME280;25451;51.960;6.250;2023-03-01T03:33:05;102880.84;;;-0.17;57.58
39773;BME280;25451;51.960;6.250;2023-03-01T03:35:39;102903.03;;;-0.12;57.56
39773;BME280;25451;51.960;6.250;2023-03-01T03:38:06;102869.75;;;-0.25;57.47
39773;BME280;25451;51.960;6.250;2023-03-01T03:40:45;102892.19;;;-0.12;57.57
39773;BME280;25451;51.960;6.250;2023-03-01T03:43:13;102893.41;;;-0.16;57.67
39773;BME280;25451;51.960;6.250;2023-03-01T03:45:39;102891.44;;;-0.14;57.53
39773;BME280;25451;51.960;6.250;2023-03-01T03:48:07;102877.63;;;-0.22;57.93
39773;BME280;25451;51.960;6.250;2023-03-01T03:50:34;102892.56;;;-0.16;57.62
39773;BME280;25451;51.960;6.250;2023-03-01T03:53:02;102878.25;;;-0.18;57.78
39773;BME280;25451;51.960;6.250;2023-03-01T03:55:27;102843.00;;;-0.40;57.48
39773;BME280;25451;51.960;6.250;2023-03-01T03:58:00;102875.66;;;-0.20;57.34
39773;BME280;25451;51.960;6.250;2023-03-01T04:00:33;102864.34;;;-0.25;58.04
39773;BME280;25451;51.960;6.250;2023-03-01T04:02:59;102880.13;;;-0.19;57.70
39773;BME280;25451;51.960;6.250;2023-03-01T04:05:26;102865.06;;;-0.23;57.70
39773;BME280;25451;51.960;6.250;2023-03-01T04:07:52;102879.13;;;-0.18;57.80
39773;BME280;25451;51.960;6.250;2023-03-01T04:10:40;102874.69;;;-0.19;57.59
39773;BME280;25451;51.960;6.250;2023-03-01T04:13:07;102863.34;;;-0.24;57.65
39773;BME280;25451;51.960;6.250;2023-03-01T04:15:34;102873.81;;;-0.19;57.66
39773;BME280;25451;51.960;6.250;2023-03-01T04:18:00;102858.19;;;-0.27;57.49
39773;BME280;25451;51.960;6.250;2023-03-01T04:20:31;102863.94;;;-0.20;58.09
39773;BME280;25451;51.960;6.250;2023-03-01T04:23:04;102866.78;;;-0.22;57.68
39773;BME280;25451;51.960;6.250;2023-03-01T04:25:57;102865.81;;;-0.21;58.23
39773;BME280;25451;51.960;6.250;2023-03-01T04:28:34;102852.75;;;-0.27;58.08
39773;BME280;25451;51.960;6.250;2023-03-01T04:31:03;102860.47;;;-0.22;57.81
39773;BME280;25451;51.960;6.250;2023-03-01T04:34:00;102856.19;;;-0.25;58.17
39773;BME280;25451;51.960;6.250;2023-03-01T04:36:28;102851.13;;;-0.29;58.06
39773;BME280;25451;51.960;6.250;2023-03-01T04:38:54;102854.72;;;-0.29;57.81
39773;BME280;25451;51.960;6.250;2023-03-01T04:41:21;102832.78;;;-0.37;57.61
39773;BME280;25451;51.960;6.250;2023-03-01T04:43:47;102843.22;;;-0.32;58.23
39773;BME280;25451;51.960;6.250;2023-03-01T04:46:16;102845.84;;;-0.31;58.34
39773;BME280;25451;51.960;6.250;2023-03-01T04:48:43;102847.91;;;-0.34;57.99
39773;BME280;25451;51.960;6.250;2023-03-01T04:51:10;102848.78;;;-0.34;58.23
39773;BME280;25451;51.960;6.250;2023-03-01T04:53:39;102839.44;;;-0.41;58.11
39773;BME280;25451;51.960;6.250;2023-03-01T04:56:05;102841.16;;;-0.40;58.00
39773;BME280;25451;51.960;6.250;2023-03-01T04:58:30;102840.91;;;-0.37;57.89
39773;BME280;25451;51.960;6.250;2023-03-01T05:00:56;102823.53;;;-0.45;58.35
39773;BME280;25451;51.960;6.250;2023-03-01T05:03:21;102798.66;;;-0.61;58.02
39773;BME280;25451;51.960;6.250;2023-03-01T05:05:49;102827.34;;;-0.37;58.26
39773;BME280;25451;51.960;6.250;2023-03-01T05:08:15;102822.31;;;-0.41;57.94
39773;BME280;25451;51.960;6.250;2023-03-01T05:10:49;102824.13;;;-0.42;57.94
39773;BME280;25451;51.960;6.250;2023-03-01T05:13:15;102826.72;;;-0.40;58.20
39773;BME280;25451;51.960;6.250;2023-03-01T05:15:56;102817.63;;;-0.39;58.62
39773;BME280;25451;51.960;6.250;2023-03-01T05:18:22;102818.56;;;-0.40;58.19
39773;BME280;25451;51.960;6.250;2023-03-01T05:20:51;102804.28;;;-0.42;58.27
39773;BME280;25451;51.960;6.250;2023-03-01T05:23:17;102812.31;;;-0.41;58.15
39773;BME280;25451;51.960;6.250;2023-03-01T05:25:43;102812.31;;;-0.41;58.63
39773;BME280;25451;51.960;6.250;2023-03-01T05:28:12;102812.31;;;-0.41;58.54
39773;BME280;25451;51.960;6.250;2023-03-01T05:30:38;102799.97;;;-0.45;58.08
39773;BME280;25451;51.960;6.250;2023-03-01T05:33:07;102786.28;;;-0.54;58.53
39773;BME280;25451;51.960;6.250;2023-03-01T05:35:41;102788.88;;;-0.53;58.65
39773;BME280;25451;51.960;6.250;2023-03-01T05:38:07;102790.34;;;-0.49;58.34
39773;BME280;25451;51.960;6.250;2023-03-01T05:40:34;102790.34;;;-0.49;58.51
39773;BME280;25451;51.960;6.250;2023-03-01T05:43:00;102785.94;;;-0.50;58.06
39773;BME280;25451;51.960;6.250;2023-03-01T05:45:26;102783.94;;;-0.48;58.47
39773;BME280;25451;51.960;6.250;2023-03-01T05:47:52;102783.59;;;-0.54;58.62
39773;BME280;25451;51.960;6.250;2023-03-01T05:50:24;102784.47;;;-0.54;58.44
39773;BME280;25451;51.960;6.250;2023-03-01T05:52:55;102772.13;;;-0.58;58.70
39773;BME280;25451;51.960;6.250;2023-03-01T05:55:21;102777.69;;;-0.59;58.53
39773;BME280;25451;51.960;6.250;2023-03-01T05:57:47;102792.72;;;-0.55;58.66
39773;BME280;25451;51.960;6.250;2023-03-01T06:00:14;102792.72;;;-0.55;58.37
39773;BME280;25451;51.960;6.250;2023-03-01T06:02:41;102796.69;;;-0.59;58.89
39773;BME280;25451;51.960;6.250;2023-03-01T06:05:08;102782.00;;;-0.68;58.67
39773;BME280;25451;51.960;6.250;2023-03-01T06:07:34;102794.56;;;-0.67;58.52
39773;BME280;25451;51.960;6.250;2023-03-01T06:10:00;102791.75;;;-0.65;58.65
39773;BME280;25451;51.960;6.250;2023-03-01T06:12:25;102796.78;;;-0.61;58.86
39773;BME280;25451;51.960;6.250;2023-03-01T06:14:51;102796.03;;;-0.63;58.45
39773;BME280;25451;51.960;6.250;2023-03-01T06:17:16;102791.97;;;-0.68;58.58
39773;BME280;25451;51.960;6.250;2023-03-01T06:19:41;102792.59;;;-0.65;58.92
39773;BME280;25451;51.960;6.250;2023-03-01T06:22:07;102792.25;;;-0.71;59.00
39773;BME280;25451;51.960;6.250;2023-03-01T06:24:33;102799.50;;;-0.72;58.60
39773;BME280;25451;51.960;6.250;2023-03-01T06:26:59;102799.16;;;-0.67;58.65
39773;BME280;25451;51.960;6.250;2023-03-01T06:29:24;102799.16;;;-0.67;58.87
39773;BME280;25451;51.960;6.250;2023-03-01T06:31:49;102804.44;;;-0.66;58.70
39773;BME280;25451;51.960;6.250;2023-03-01T06:34:15;102790.13;;;-0.68;59.03
39773;BME280;25451;51.960;6.250;2023-03-01T06:36:40;102800.72;;;-0.65;58.59
39773;BME280;25451;51.960;6.250;2023-03-01T06:39:06;102812.31;;;-0.63;58.67
39773;BME280;25451;51.960;6.250;2023-03-01T06:41:32;102801.97;;;-0.69;58.73
39773;BME280;25451;51.960;6.250;2023-03-01T06:43:58;102810.84;;;-0.67;58.78
39773;BME280;25451;51.960;6.250;2023-03-01T06:46:24;102799.97;;;-0.67;58.87
39773;BME280;25451;51.960;6.250;2023-03-01T06:48:49;102798.50;;;-0.71;59.23
39773;BME280;25451;51.960;6.250;2023-03-01T06:51:14;102799.16;;;-0.67;59.12
39773;BME280;25451;51.960;6.250;2023-03-01T06:53:40;102787.94;;;-0.74;59.04
39773;BME280;25451;51.960;6.250;2023-03-01T06:56:05;102787.66;;;-0.71;58.63
39773;BME280;25451;51.960;6.250;2023-03-01T06:58:30;102797.03;;;-0.64;58.93
39773;BME280;25451;51.960;6.250;2023-03-01T07:00:56;102778.69;;;-0.71;59.27
39773;BME280;25451;51.960;6.250;2023-03-01T07:03:21;102796.78;;;-0.61;58.72
39773;BME280;25451;51.960;6.250;2023-03-01T07:05:51;102796.53;;;-0.58;59.22
39773;BME280;25451;51.960;6.250;2023-03-01T07:08:19;102784.34;;;-0.63;59.05
39773;BME280;25451;51.960;6.250;2023-03-01T07:10:45;102795.16;;;-0.52;59.32
39773;BME280;25451;51.960;6.250;2023-03-01T07:13:10;102777.78;;;-0.61;59.22
39773;BME280;25451;51.960;6.250;2023-03-01T07:15:36;102793.47;;;-0.53;58.95
39773;BME280;25451;51.960;6.250;2023-03-01T07:18:01;102801.69;;;-0.44;58.59
39773;BME280;25451;51.960;6.250;2023-03-01T07:20:27;102795.31;;;-0.43;58.95
39773;BME280;25451;51.960;6.250;2023-03-01T07:22:53;102790.84;;;-0.44;58.58
39773;BME280;25451;51.960;6.250;2023-03-01T07:25:19;102786.03;;;-0.40;58.74
39773;BME280;25451;51.960;6.250;2023-03-01T07:27:49;102790.94;;;-0.34;58.61
39773;BME280;25451;51.960;6.250;2023-03-01T07:30:14;102796.50;;;-0.25;58.72
39773;BME280;25451;51.960;6.250;2023-03-01T07:32:40;102797.97;;;-0.21;59.06
39773;BME280;25451;51.960;6.250;2023-03-01T07:35:05;102808.06;;;-0.12;58.90
39773;BME280;25451;51.960;6.250;2023-03-01T07:37:31;102785.13;;;-0.19;58.99
39773;BME280;25451;51.960;6.250;2023-03-01T07:39:56;102795.22;;;-0.10;58.28
39773;BME280;25451;51.960;6.250;2023-03-01T07:42:22;102803.19;;;0.03;58.27
39773;BME280;25451;51.960;6.250;2023-03-01T07:44:48;102798.38;;;0.07;58.68
39773;BME280;25451;51.960;6.250;2023-03-01T07:47:13;102775.66;;;0.08;58.46
39773;BME280;25451;51.960;6.250;2023-03-01T07:49:39;102799.81;;;0.22;58.69
39773;BME280;25451;51.960;6.250;2023-03-01T07:52:04;102806.44;;;0.29;58.83
39773;BME280;25451;51.960;6.250;2023-03-01T07:54:29;102806.19;;;0.32;58.24
39773;BME280;25451;51.960;6.250;2023-03-01T07:56:56;102803.53;;;0.41;58.64
39773;BME280;25451;51.960;6.250;2023-03-01T07:59:21;102810.91;;;0.50;58.61
39773;BME280;25451;51.960;6.250;2023-03-01T08:01:48;102793.75;;;0.50;58.32
39773;BME280;25451;51.960;6.250;2023-03-01T08:04:14;102811.03;;;0.69;58.05
39773;BME280;25451;51.960;6.250;2023-03-01T08:06:39;102801.25;;;0.78;58.21
39773;BME280;25451;51.960;6.250;2023-03-01T08:09:04;102803.91;;;0.89;58.29
39773;BME280;25451;51.960;6.250;2023-03-01T08:11:30;102798.91;;;0.94;58.48
39773;BME280;25451;51.960;6.250;2023-03-01T08:13:55;102797.81;;;1.06;58.24
39773;BME280;25451;51.960;6.250;2023-03-01T08:16:22;102795.63;;;1.21;57.65
39773;BME280;25451;51.960;6.250;2023-03-01T08:18:48;102794.41;;;1.34;57.81
39773;BME280;25451;51.960;6.250;2023-03-01T08:21:16;102793.31;;;1.46;57.82
39773;BME280;25451;51.960;6.250;2023-03-01T08:23:42;102806.25;;;1.63;57.17
39773;BME280;25451;51.960;6.250;2023-03-01T08:26:13;102799.56;;;1.77;57.75
39773;BME280;25451;51.960;6.250;2023-03-01T08:28:39;102795.13;;;1.86;57.39
39773;BME280;25451;51.960;6.250;2023-03-01T08:31:27;102804.31;;;2.04;57.42
39773;BME280;25451;51.960;6.250;2023-03-01T08:33:56;102801.06;;;2.19;57.25
39773;BME280;25451;51.960;6.250;2023-03-01T08:36:23;102799.06;;;2.31;56.96
39773;BME280;25451;51.960;6.250;2023-03-01T08:38:49;102798.47;;;2.46;57.10
39773;BME280;25451;51.960;6.250;2023-03-01T08:41:15;102798.91;;;2.61;56.99
39773;BME280;25451;51.960;6.250;2023-03-01T08:43:40;102777.53;;;2.66;56.92
39773;BME280;25451;51.960;6.250;2023-03-01T08:46:06;102798.00;;;2.89;57.09
39773;BME280;25451;51.960;6.250;2023-03-01T08:48:31;102784.91;;;3.02;56.67
39773;BME280;25451;51.960;6.250;2023-03-01T08:51:06;102773.13;;;3.11;56.88
39773;BME280;25451;51.960;6.250;2023-03-01T08:53:32;102780.50;;;3.28;56.71
39773;BME280;25451;51.960;6.250;2023-03-01T08:56:00;102770.25;;;3.40;56.40
39773;BME280;25451;51.960;6.250;2023-03-01T08:58:26;102784.94;;;3.66;56.45
39773;BME280;25451;51.960;6.250;2023-03-01T09:00:51;102790.59;;;3.82;56.60
39773;BME280;25451;51.960;6.250;2023-03-01T09:03:16;102783.38;;;3.91;56.48
39773;BME280;25451;51.960;6.250;2023-03-01T09:05:42;102786.72;;;4.02;56.64
39773;BME280;25451;51.960;6.250;2023-03-01T09:08:07;102766.09;;;4.08;56.31
39773;BME280;25451;51.960;6.250;2023-03-01T09:10:37;102785.94;;;4.28;56.37
39773;BME280;25451;51.960;6.250;2023-03-01T09:13:02;102767.75;;;4.36;56.27
39773;BME280;25451;51.960;6.250;2023-03-01T09:15:28;102768.59;;;4.54;56.11
39773;BME280;25451;51.960;6.250;2023-03-01T09:17:53;102774.91;;;4.72;56.38
39773;BME280;25451;51.960;6.250;2023-03-01T09:20:18;102776.44;;;4.92;55.96
39773;BME280;25451;51.960;6.250;2023-03-01T09:22:44;102774.13;;;5.05;56.33
39773;BME280;25451;51.960;6.250;2023-03-01T09:25:09;102732.66;;;4.92;55.82
39773;BME280;25451;51.960;6.250;2023-03-01T09:27:34;102765.56;;;5.34;56.09
39773;BME280;25451;51.960;6.250;2023-03-01T09:30:00;102762.66;;;5.36;55.80
39773;BME280;25451;51.960;6.250;2023-03-01T09:32:26;102776.78;;;5.57;56.21
39773;BME280;25451;51.960;6.250;2023-03-01T09:34:51;102774.78;;;5.67;55.64
39773;BME280;25451;51.960;6.250;2023-03-01T09:37:35;102760.59;;;5.71;55.78
39773;BME280;25451;51.960;6.250;2023-03-01T09:40:02;102762.91;;;5.84;55.76
39773;BME280;25451;51.960;6.250;2023-03-01T09:42:32;102754.53;;;5.94;55.51
39773;BME280;25451;51.960;6.250;2023-03-01T09:45:05;102748.56;;;6.14;55.52
39773;BME280;25451;51.960;6.250;2023-03-01T09:47:35;102740.69;;;6.27;55.66
39773;BME280;25451;51.960;6.250;2023-03-01T09:50:13;102741.75;;;6.50;55.23
39773;BME280;25451;51.960;6.250;2023-03-01T09:55:33;102745.81;;;7.03;54.77
39773;BME280;25451;51.960;6.250;2023-03-01T09:58:00;102746.94;;;7.32;54.83
39773;BME280;25451;51.960;6.250;2023-03-01T10:00:37;102740.56;;;7.40;54.30
39773;BME280;25451;51.960;6.250;2023-03-01T10:03:14;102734.88;;;7.41;54.42
39773;BME280;25451;51.960;6.250;2023-03-01T10:10:48;102733.38;;;7.39;54.75
39773;BME280;25451;51.960;6.250;2023-03-01T10:13:21;102734.06;;;7.25;54.33
39773;BME280;25451;51.960;6.250;2023-03-01T10:15:51;102732.00;;;7.27;54.84
39773;BME280;25451;51.960;6.250;2023-03-01T10:18:22;102722.91;;;7.34;54.74
39773;BME280;25451;51.960;6.250;2023-03-01T10:21:22;102724.41;;;7.45;54.50
39773;BME280;25451;51.960;6.250;2023-03-01T10:23:51;102712.41;;;7.38;54.64
39773;BME280;25451;51.960;6.250;2023-03-01T10:27:14;102696.41;;;7.41;53.75
39773;BME280;25451;51.960;6.250;2023-03-01T10:29:34;102691.44;;;7.45;54.42
39773;BME280;25451;51.960;6.250;2023-03-01T10:32:03;102690.28;;;7.31;54.33
39773;BME280;25451;51.960;6.250;2023-03-01T10:34:31;102684.63;;;7.25;54.21
39773;BME280;25451;51.960;6.250;2023-03-01T10:37:22;102689.41;;;7.39;54.51
39773;BME280;25451;51.960;6.250;2023-03-01T10:39:58;102684.84;;;7.54;54.31
39773;BME280;25451;51.960;6.250;2023-03-01T10:42:32;102690.78;;;7.74;53.83
39773;BME280;25451;51.960;6.250;2023-03-01T10:45:15;102689.44;;;7.92;53.99
39773;BME280;25451;51.960;6.250;2023-03-01T10:47:41;102671.66;;;8.03;53.22
39773;BME280;25451;51.960;6.250;2023-03-01T10:50:18;102681.13;;;8.23;53.48
39773;BME280;25451;51.960;6.250;2023-03-01T10:52:57;102682.81;;;8.32;53.45
39773;BME280;25451;51.960;6.250;2023-03-01T10:55:43;102702.88;;;8.55;53.13
39773;BME280;25451;51.960;6.250;2023-03-01T11:00:55;102692.38;;;8.59;53.12
39773;BME280;25451;51.960;6.250;2023-03-01T11:03:32;102690.09;;;8.62;52.93
39773;BME280;25451;51.960;6.250;2023-03-01T11:08:43;102682.94;;;8.39;53.00
39773;BME280;25451;51.960;6.250;2023-03-01T11:13:50;102694.03;;;8.22;53.36
39773;BME280;25451;51.960;6.250;2023-03-01T11:16:45;102681.38;;;8.13;53.39
39773;BME280;25451;51.960;6.250;2023-03-01T11:21:35;102681.13;;;8.00;53.30
39773;BME280;25451;51.960;6.250;2023-03-01T11:24:04;102657.97;;;7.95;52.91
39773;BME280;25451;51.960;6.250;2023-03-01T11:26:34;102683.81;;;8.08;52.80
39773;BME280;25451;51.960;6.250;2023-03-01T11:29:04;102696.88;;;8.06;52.73
39773;BME280;25451;51.960;6.250;2023-03-01T11:31:31;102684.94;;;7.99;52.90
39773;BME280;25451;51.960;6.250;2023-03-01T11:34:01;102670.03;;;7.94;52.85
39773;BME280;25451;51.960;6.250;2023-03-01T11:42:01;102689.00;;;7.81;52.57
39773;BME280;25451;51.960;6.250;2023-03-01T11:44:30;102657.41;;;7.77;52.34
39773;BME280;25451;51.960;6.250;2023-03-01T11:49:51;102681.38;;;8.13;51.65
39773;BME280;25451;51.960;6.250;2023-03-01T11:55:29;102677.28;;;8.09;51.54
39773;BME280;25451;51.960;6.250;2023-03-01T12:22:47;102626.31;;;7.76;50.74
39773;BME280;25451;51.960;6.250;2023-03-01T12:28:24;102641.97;;;7.76;50.91
39773;BME280;25451;51.960;6.250;2023-03-01T12:31:24;102636.00;;;7.64;50.58
39773;BME280;25451;51.960;6.250;2023-03-01T12:37:21;102632.44;;;7.55;50.89
39773;BME280;25451;51.960;6.250;2023-03-01T12:40:01;102629.03;;;7.53;51.06
39773;BME280;25451;51.960;6.250;2023-03-01T12:50:40;102622.28;;;7.33;50.22
39773;BME280;25451;51.960;6.250;2023-03-01T12:53:26;102615.59;;;7.36;50.27
39773;BME280;25451;51.960;6.250;2023-03-01T12:55:58;102620.22;;;7.35;50.22
39773;BME280;25451;51.960;6.250;2023-03-01T13:09:30;102588.53;;;7.17;50.17
39773;BME280;25451;51.960;6.250;2023-03-01T13:11:58;102567.97;;;7.13;50.03
39773;BME280;25451;51.960;6.250;2023-03-01T13:16:50;102539.44;;;6.91;50.03
39773;BME280;25451;51.960;6.250;2023-03-01T13:19:26;102545.56;;;7.01;49.26
39773;BME280;25451;51.960;6.250;2023-03-01T13:21:57;102558.03;;;7.12;49.35
39773;BME280;25451;51.960;6.250;2023-03-01T13:32:20;102536.56;;;7.15;49.07
39773;BME280;25451;51.960;6.250;2023-03-01T13:34:48;102516.38;;;7.08;48.81
39773;BME280;25451;51.960;6.250;2023-03-01T13:37:34;102525.38;;;7.17;49.16
39773;BME280;25451;51.960;6.250;2023-03-01T13:46:20;102517.81;;;7.19;48.97
39773;BME280;25451;51.960;6.250;2023-03-01T13:48:50;102511.31;;;7.20;48.78
39773;BME280;25451;51.960;6.250;2023-03-01T13:51:21;102506.69;;;7.20;48.68
39773;BME280;25451;51.960;6.250;2023-03-01T13:53:49;102512.84;;;7.22;48.61
39773;BME280;25451;51.960;6.250;2023-03-01T13:56:21;102508.19;;;7.23;48.62
39773;BME280;25451;51.960;6.250;2023-03-01T13:59:00;102500.13;;;7.21;48.31
39773;BME280;25451;51.960;6.250;2023-03-01T14:01:34;102488.00;;;7.16;49.09
39773;BME280;25451;51.960;6.250;2023-03-01T14:04:01;102498.25;;;7.22;48.71
39773;BME280;25451;51.960;6.250;2023-03-01T14:06:29;102501.84;;;7.22;48.51
39773;BME280;25451;51.960;6.250;2023-03-01T14:09:23;102496.53;;;7.21;48.61
39773;BME280;25451;51.960;6.250;2023-03-01T14:19:47;102478.34;;;7.20;48.29
39773;BME280;25451;51.960;6.250;2023-03-01T14:22:23;102470.97;;;7.20;48.13
39773;BME280;25451;51.960;6.250;2023-03-01T14:24:54;102447.53;;;7.10;48.18
39773;BME280;25451;51.960;6.250;2023-03-01T14:27:21;102450.41;;;7.16;48.14
39773;BME280;25451;51.960;6.250;2023-03-01T14:29:56;102475.91;;;7.25;47.81
39773;BME280;25451;51.960;6.250;2023-03-01T14:32:25;102438.25;;;7.11;47.77
39773;BME280;25451;51.960;6.250;2023-03-01T14:34:51;102446.13;;;7.14;47.80
39773;BME280;25451;51.960;6.250;2023-03-01T14:39:47;102448.44;;;7.25;47.67
39773;BME280;25451;51.960;6.250;2023-03-01T14:42:13;102439.53;;;7.23;47.63
39773;BME280;25451;51.960;6.250;2023-03-01T14:44:45;102425.13;;;7.21;47.86
39773;BME280;25451;51.960;6.250;2023-03-01T14:47:15;102419.28;;;7.24;47.42
39773;BME280;25451;51.960;6.250;2023-03-01T14:49:41;102435.88;;;7.30;47.55
39773;BME280;25451;51.960;6.250;2023-03-01T14:52:18;102431.25;;;7.31;47.75
39773;BME280;25451;51.960;6.250;2023-03-01T14:54:48;102437.56;;;7.31;47.49
39773;BME280;25451;51.960;6.250;2023-03-01T14:57:17;102432.09;;;7.31;47.62
39773;BME280;25451;51.960;6.250;2023-03-01T14:59:44;102432.94;;;7.32;47.34